sensor_id;sensor_type;location;lat;lon;timestamp;P1;durP1;ratioP1;P2;durP2;ratioP2
842;SDS011;407;48.884;9.126;2022-11-09T00:00:45;12.07;;;5.82;;
842;SDS011;407;48.884;9.126;2022-11-09T00:03:11;13.27;;;5.90;;
842;SDS011;407;48.884;9.126;2022-11-09T00:05:37;14.60;;;5.67;;
842;SDS011;407;48.884;9.126;2022-11-09T00:08:06;11.27;;;5.75;;
842;SDS011;407;48.884;9.126;2022-11-09T00:10:33;11.25;;;5.43;;
842;SDS011;407;48.884;9.126;2022-11-09T00:12:59;12.47;;;6.00;;
842;SDS011;407;48.884;9.126;2022-11-09T00:15:25;13.77;;;5.80;;
842;SDS011;407;48.884;9.126;2022-11-09T00:17:51;11.43;;;5.47;;
842;SDS011;407;48.884;9.126;2022-11-09T00:20:16;13.50;;;6.07;;
842;SDS011;407;48.884;9.126;2022-11-09T00:22:45;13.00;;;5.40;;
842;SDS011;407;48.884;9.126;2022-11-09T00:25:12;11.50;;;5.60;;
842;SDS011;407;48.884;9.126;2022-11-09T00:27:38;14.25;;;5.95;;
842;SDS011;407;48.884;9.126;2022-11-09T00:30:04;11.73;;;5.50;;
842;SDS011;407;48.884;9.126;2022-11-09T00:32:30;12.75;;;6.10;;
842;SDS011;407;48.884;9.126;2022-11-09T00:34:56;11.80;;;5.60;;
842;SDS011;407;48.884;9.126;2022-11-09T00:37:21;11.45;;;6.18;;
842;SDS011;407;48.884;9.126;2022-11-09T00:39:47;10.90;;;5.30;;
842;SDS011;407;48.884;9.126;2022-11-09T00:42:12;12.90;;;5.73;;
842;SDS011;407;48.884;9.126;2022-11-09T00:44:38;12.57;;;5.63;;
842;SDS011;407;48.884;9.126;2022-11-09T00:47:03;11.75;;;5.60;;
842;SDS011;407;48.884;9.126;2022-11-09T00:49:29;12.80;;;5.83;;
842;SDS011;407;48.884;9.126;2022-11-09T00:51:54;11.63;;;5.47;;
842;SDS011;407;48.884;9.126;2022-11-09T00:54:20;12.40;;;5.60;;
842;SDS011;407;48.884;9.126;2022-11-09T00:56:46;12.93;;;6.50;;
842;SDS011;407;48.884;9.126;2022-11-09T00:59:11;12.07;;;5.70;;
842;SDS011;407;48.884;9.126;2022-11-09T01:01:37;12.38;;;5.80;;
842;SDS011;407;48.884;9.126;2022-11-09T01:04:02;12.37;;;5.17;;
842;SDS011;407;48.884;9.126;2022-11-09T01:06:28;13.15;;;6.00;;
842;SDS011;407;48.884;9.126;2022-11-09T01:08:54;12.40;;;5.70;;
842;SDS011;407;48.884;9.126;2022-11-09T01:11:20;12.85;;;5.75;;
842;SDS011;407;48.884;9.126;2022-11-09T01:13:46;10.00;;;5.20;;
842;SDS011;407;48.884;9.126;2022-11-09T01:16:16;13.20;;;5.30;;
842;SDS011;407;48.884;9.126;2022-11-09T01:18:43;15.07;;;5.55;;
842;SDS011;407;48.884;9.126;2022-11-09T01:21:10;13.07;;;5.32;;
842;SDS011;407;48.884;9.126;2022-11-09T01:23:37;11.00;;;4.97;;
842;SDS011;407;48.884;9.126;2022-11-09T01:26:05;10.35;;;4.53;;
842;SDS011;407;48.884;9.126;2022-11-09T01:28:32;8.82;;;3.95;;
842;SDS011;407;48.884;9.126;2022-11-09T01:31:02;11.18;;;4.00;;
842;SDS011;407;48.884;9.126;2022-11-09T01:33:30;9.70;;;3.90;;
842;SDS011;407;48.884;9.126;2022-11-09T01:36:29;8.25;;;3.25;;
842;SDS011;407;48.884;9.126;2022-11-09T01:38:48;8.60;;;3.00;;
842;SDS011;407;48.884;9.126;2022-11-09T01:41:16;8.85;;;2.72;;
842;SDS011;407;48.884;9.126;2022-11-09T01:44:00;8.32;;;2.40;;
842;SDS011;407;48.884;9.126;2022-11-09T01:49:09;7.43;;;2.42;;
842;SDS011;407;48.884;9.126;2022-11-09T01:51:41;7.82;;;2.22;;
842;SDS011;407;48.884;9.126;2022-11-09T01:54:14;7.25;;;2.15;;
842;SDS011;407;48.884;9.126;2022-11-09T01:56:50;6.57;;;2.40;;
842;SDS011;407;48.884;9.126;2022-11-09T01:59:21;7.37;;;2.20;;
842;SDS011;407;48.884;9.126;2022-11-09T02:01:52;7.63;;;2.40;;
842;SDS011;407;48.884;9.126;2022-11-09T02:04:29;6.90;;;2.57;;
842;SDS011;407;48.884;9.126;2022-11-09T02:07:07;7.72;;;2.80;;
842;SDS011;407;48.884;9.126;2022-11-09T02:12:10;7.03;;;2.67;;
842;SDS011;407;48.884;9.126;2022-11-09T02:14:36;7.80;;;3.00;;
842;SDS011;407;48.884;9.126;2022-11-09T02:17:04;10.10;;;3.20;;
842;SDS011;407;48.884;9.126;2022-11-09T02:19:31;7.30;;;2.70;;
842;SDS011;407;48.884;9.126;2022-11-09T02:21:57;8.70;;;3.30;;
842;SDS011;407;48.884;9.126;2022-11-09T02:24:23;6.90;;;2.80;;
842;SDS011;407;48.884;9.126;2022-11-09T02:26:50;8.30;;;3.20;;
842;SDS011;407;48.884;9.126;2022-11-09T02:29:21;8.23;;;2.88;;
842;SDS011;407;48.884;9.126;2022-11-09T02:31:54;8.90;;;3.15;;
842;SDS011;407;48.884;9.126;2022-11-09T02:34:22;9.75;;;3.47;;
842;SDS011;407;48.884;9.126;2022-11-09T02:36:49;7.83;;;3.10;;
842;SDS011;407;48.884;9.126;2022-11-09T02:39:15;8.13;;;2.70;;
842;SDS011;407;48.884;9.126;2022-11-09T02:41:53;6.95;;;2.90;;
842;SDS011;407;48.884;9.126;2022-11-09T02:44:31;7.40;;;3.13;;
842;SDS011;407;48.884;9.126;2022-11-09T02:47:01;7.67;;;2.90;;
842;SDS011;407;48.884;9.126;2022-11-09T02:49:26;8.18;;;3.15;;
842;SDS011;407;48.884;9.126;2022-11-09T02:51:52;8.00;;;2.77;;
842;SDS011;407;48.884;9.126;2022-11-09T02:54:17;7.57;;;2.88;;
842;SDS011;407;48.884;9.126;2022-11-09T02:56:43;7.78;;;3.10;;
842;SDS011;407;48.884;9.126;2022-11-09T02:59:09;8.23;;;3.30;;
842;SDS011;407;48.884;9.126;2022-11-09T03:01:34;8.67;;;3.30;;
842;SDS011;407;48.884;9.126;2022-11-09T03:04:00;7.78;;;2.90;;
842;SDS011;407;48.884;9.126;2022-11-09T03:06:25;9.00;;;3.10;;
842;SDS011;407;48.884;9.126;2022-11-09T03:08:59;7.45;;;3.10;;
842;SDS011;407;48.884;9.126;2022-11-09T03:11:33;9.47;;;3.30;;
842;SDS011;407;48.884;9.126;2022-11-09T03:13:59;8.57;;;3.65;;
842;SDS011;407;48.884;9.126;2022-11-09T03:16:25;10.35;;;3.80;;
842;SDS011;407;48.884;9.126;2022-11-09T03:18:51;10.63;;;4.00;;
842;SDS011;407;48.884;9.126;2022-11-09T03:21:17;10.10;;;3.40;;
842;SDS011;407;48.884;9.126;2022-11-09T03:23:43;9.23;;;3.47;;
842;SDS011;407;48.884;9.126;2022-11-09T03:26:09;9.57;;;3.50;;
842;SDS011;407;48.884;9.126;2022-11-09T03:28:35;7.83;;;3.60;;
842;SDS011;407;48.884;9.126;2022-11-09T03:31:01;9.93;;;3.67;;
842;SDS011;407;48.884;9.126;2022-11-09T03:33:26;9.00;;;3.70;;
842;SDS011;407;48.884;9.126;2022-11-09T03:35:52;10.13;;;4.23;;
842;SDS011;407;48.884;9.126;2022-11-09T03:38:17;10.45;;;4.15;;
842;SDS011;407;48.884;9.126;2022-11-09T03:40:43;8.07;;;4.00;;
842;SDS011;407;48.884;9.126;2022-11-09T03:43:08;7.67;;;3.67;;
842;SDS011;407;48.884;9.126;2022-11-09T03:45:34;8.75;;;3.38;;
842;SDS011;407;48.884;9.126;2022-11-09T03:48:00;9.15;;;3.47;;
842;SDS011;407;48.884;9.126;2022-11-09T03:50:26;10.67;;;3.40;;
842;SDS011;407;48.884;9.126;2022-11-09T03:52:53;7.95;;;3.50;;
842;SDS011;407;48.884;9.126;2022-11-09T03:55:19;7.90;;;3.70;;
842;SDS011;407;48.884;9.126;2022-11-09T03:57:45;8.68;;;3.80;;
842;SDS011;407;48.884;9.126;2022-11-09T04:00:11;9.32;;;3.28;;
842;SDS011;407;48.884;9.126;2022-11-09T04:02:39;8.45;;;3.20;;
842;SDS011;407;48.884;9.126;2022-11-09T04:05:04;7.90;;;3.40;;
842;SDS011;407;48.884;9.126;2022-11-09T04:07:31;7.90;;;2.97;;
842;SDS011;407;48.884;9.126;2022-11-09T04:09:56;9.30;;;4.30;;
842;SDS011;407;48.884;9.126;2022-11-09T04:12:22;8.13;;;3.50;;
842;SDS011;407;48.884;9.126;2022-11-09T04:14:48;9.95;;;4.35;;
842;SDS011;407;48.884;9.126;2022-11-09T04:17:13;8.63;;;4.03;;
842;SDS011;407;48.884;9.126;2022-11-09T04:19:39;8.77;;;4.20;;
842;SDS011;407;48.884;9.126;2022-11-09T04:22:05;11.00;;;4.30;;
842;SDS011;407;48.884;9.126;2022-11-09T04:24:30;12.60;;;4.50;;
842;SDS011;407;48.884;9.126;2022-11-09T04:26:56;11.23;;;4.60;;
842;SDS011;407;48.884;9.126;2022-11-09T04:29:22;10.80;;;4.50;;
842;SDS011;407;48.884;9.126;2022-11-09T04:31:48;9.70;;;4.55;;
842;SDS011;407;48.884;9.126;2022-11-09T04:34:14;12.40;;;4.47;;
842;SDS011;407;48.884;9.126;2022-11-09T04:36:40;11.38;;;4.15;;
842;SDS011;407;48.884;9.126;2022-11-09T04:39:06;10.50;;;4.80;;
842;SDS011;407;48.884;9.126;2022-11-09T04:41:32;9.57;;;4.40;;
842;SDS011;407;48.884;9.126;2022-11-09T04:43:57;11.80;;;4.90;;
842;SDS011;407;48.884;9.126;2022-11-09T04:46:23;12.40;;;4.40;;
842;SDS011;407;48.884;9.126;2022-11-09T04:48:48;12.47;;;4.60;;
842;SDS011;407;48.884;9.126;2022-11-09T04:51:14;11.50;;;4.60;;
842;SDS011;407;48.884;9.126;2022-11-09T04:53:40;10.85;;;5.00;;
842;SDS011;407;48.884;9.126;2022-11-09T04:56:06;11.07;;;5.27;;
842;SDS011;407;48.884;9.126;2022-11-09T04:58:32;11.00;;;5.60;;
842;SDS011;407;48.884;9.126;2022-11-09T05:01:02;15.23;;;5.25;;
842;SDS011;407;48.884;9.126;2022-11-09T05:03:35;11.73;;;6.05;;
842;SDS011;407;48.884;9.126;2022-11-09T05:06:01;12.77;;;6.17;;
842;SDS011;407;48.884;9.126;2022-11-09T05:08:50;11.95;;;6.38;;
842;SDS011;407;48.884;9.126;2022-11-09T05:11:16;13.95;;;5.80;;
842;SDS011;407;48.884;9.126;2022-11-09T05:13:42;13.27;;;6.00;;
842;SDS011;407;48.884;9.126;2022-11-09T05:16:08;13.90;;;6.30;;
842;SDS011;407;48.884;9.126;2022-11-09T05:18:33;11.73;;;6.30;;
842;SDS011;407;48.884;9.126;2022-11-09T05:20:59;16.23;;;7.35;;
842;SDS011;407;48.884;9.126;2022-11-09T05:23:25;11.77;;;6.57;;
842;SDS011;407;48.884;9.126;2022-11-09T05:26:10;12.90;;;6.28;;
842;SDS011;407;48.884;9.126;2022-11-09T05:28:35;12.38;;;6.82;;
842;SDS011;407;48.884;9.126;2022-11-09T05:31:01;15.87;;;7.07;;
842;SDS011;407;48.884;9.126;2022-11-09T05:33:27;12.18;;;6.32;;
842;SDS011;407;48.884;9.126;2022-11-09T05:35:53;16.23;;;7.00;;
842;SDS011;407;48.884;9.126;2022-11-09T05:38:19;14.75;;;6.88;;
842;SDS011;407;48.884;9.126;2022-11-09T05:40:49;19.20;;;7.33;;
842;SDS011;407;48.884;9.126;2022-11-09T05:43:15;15.25;;;6.65;;
842;SDS011;407;48.884;9.126;2022-11-09T05:45:40;13.57;;;7.80;;
842;SDS011;407;48.884;9.126;2022-11-09T05:48:06;14.95;;;6.80;;
842;SDS011;407;48.884;9.126;2022-11-09T05:50:32;14.23;;;7.38;;
842;SDS011;407;48.884;9.126;2022-11-09T05:52:58;17.30;;;7.75;;
842;SDS011;407;48.884;9.126;2022-11-09T05:55:25;17.45;;;7.82;;
842;SDS011;407;48.884;9.126;2022-11-09T05:57:51;12.68;;;6.97;;
842;SDS011;407;48.884;9.126;2022-11-09T06:00:16;13.93;;;7.75;;
842;SDS011;407;48.884;9.126;2022-11-09T06:02:42;14.70;;;7.00;;
842;SDS011;407;48.884;9.126;2022-11-09T06:05:08;14.50;;;7.28;;
842;SDS011;407;48.884;9.126;2022-11-09T06:07:33;14.38;;;7.75;;
842;SDS011;407;48.884;9.126;2022-11-09T06:09:59;13.10;;;7.10;;
842;SDS011;407;48.884;9.126;2022-11-09T06:12:25;11.37;;;6.60;;
842;SDS011;407;48.884;9.126;2022-11-09T06:14:50;12.77;;;7.25;;
842;SDS011;407;48.884;9.126;2022-11-09T06:17:16;13.20;;;6.10;;
842;SDS011;407;48.884;9.126;2022-11-09T06:19:41;14.13;;;7.13;;
842;SDS011;407;48.884;9.126;2022-11-09T06:22:07;15.55;;;7.75;;
842;SDS011;407;48.884;9.126;2022-11-09T06:24:33;14.65;;;6.85;;
842;SDS011;407;48.884;9.126;2022-11-09T06:26:59;13.50;;;6.70;;
842;SDS011;407;48.884;9.126;2022-11-09T06:29:25;14.13;;;6.72;;
842;SDS011;407;48.884;9.126;2022-11-09T06:31:50;12.57;;;6.40;;
842;SDS011;407;48.884;9.126;2022-11-09T06:34:16;12.30;;;6.30;;
842;SDS011;407;48.884;9.126;2022-11-09T06:36:42;16.47;;;6.97;;
842;SDS011;407;48.884;9.126;2022-11-09T06:39:08;13.40;;;6.82;;
842;SDS011;407;48.884;9.126;2022-11-09T06:41:34;16.05;;;7.07;;
842;SDS011;407;48.884;9.126;2022-11-09T06:43:59;11.60;;;6.47;;
842;SDS011;407;48.884;9.126;2022-11-09T06:46:25;13.80;;;7.22;;
842;SDS011;407;48.884;9.126;2022-11-09T06:48:51;16.23;;;7.15;;
842;SDS011;407;48.884;9.126;2022-11-09T06:51:17;14.20;;;7.30;;
842;SDS011;407;48.884;9.126;2022-11-09T06:53:42;15.67;;;7.70;;
842;SDS011;407;48.884;9.126;2022-11-09T06:56:08;15.38;;;7.32;;
842;SDS011;407;48.884;9.126;2022-11-09T06:58:34;17.60;;;7.90;;
842;SDS011;407;48.884;9.126;2022-11-09T07:01:05;12.80;;;7.10;;
842;SDS011;407;48.884;9.126;2022-11-09T07:03:32;14.70;;;7.30;;
842;SDS011;407;48.884;9.126;2022-11-09T07:05:58;14.40;;;7.60;;
842;SDS011;407;48.884;9.126;2022-11-09T07:08:29;17.00;;;8.63;;
842;SDS011;407;48.884;9.126;2022-11-09T07:10:55;16.10;;;8.18;;
842;SDS011;407;48.884;9.126;2022-11-09T07:13:27;12.65;;;7.47;;
842;SDS011;407;48.884;9.126;2022-11-09T07:15:53;15.47;;;8.20;;
842;SDS011;407;48.884;9.126;2022-11-09T07:18:18;19.08;;;8.10;;
842;SDS011;407;48.884;9.126;2022-11-09T07:20:44;14.23;;;7.70;;
842;SDS011;407;48.884;9.126;2022-11-09T07:23:09;13.73;;;7.27;;
842;SDS011;407;48.884;9.126;2022-11-09T07:25:35;16.17;;;7.50;;
842;SDS011;407;48.884;9.126;2022-11-09T07:28:04;18.77;;;9.30;;
842;SDS011;407;48.884;9.126;2022-11-09T07:30:32;17.63;;;9.40;;
842;SDS011;407;48.884;9.126;2022-11-09T07:32:58;16.47;;;8.20;;
842;SDS011;407;48.884;9.126;2022-11-09T07:35:24;15.80;;;7.60;;
842;SDS011;407;48.884;9.126;2022-11-09T07:37:53;13.40;;;7.28;;
842;SDS011;407;48.884;9.126;2022-11-09T07:40:19;12.98;;;7.15;;
842;SDS011;407;48.884;9.126;2022-11-09T07:42:44;13.10;;;6.90;;
842;SDS011;407;48.884;9.126;2022-11-09T07:45:10;13.90;;;6.80;;
842;SDS011;407;48.884;9.126;2022-11-09T07:47:36;15.90;;;6.93;;
842;SDS011;407;48.884;9.126;2022-11-09T07:50:02;11.93;;;6.72;;
842;SDS011;407;48.884;9.126;2022-11-09T07:52:28;13.02;;;6.60;;
842;SDS011;407;48.884;9.126;2022-11-09T07:54:53;11.10;;;5.70;;
842;SDS011;407;48.884;9.126;2022-11-09T07:57:19;11.03;;;5.30;;
842;SDS011;407;48.884;9.126;2022-11-09T07:59:44;10.95;;;5.22;;
842;SDS011;407;48.884;9.126;2022-11-09T08:02:10;11.37;;;5.20;;
842;SDS011;407;48.884;9.126;2022-11-09T08:04:36;12.20;;;5.03;;
842;SDS011;407;48.884;9.126;2022-11-09T08:07:01;9.17;;;4.60;;
842;SDS011;407;48.884;9.126;2022-11-09T08:09:27;10.50;;;5.00;;
842;SDS011;407;48.884;9.126;2022-11-09T08:11:52;13.00;;;4.70;;
842;SDS011;407;48.884;9.126;2022-11-09T08:14:18;10.93;;;4.70;;
842;SDS011;407;48.884;9.126;2022-11-09T08:16:44;10.30;;;4.20;;
842;SDS011;407;48.884;9.126;2022-11-09T08:19:09;11.30;;;4.05;;
842;SDS011;407;48.884;9.126;2022-11-09T08:21:35;8.63;;;4.17;;
842;SDS011;407;48.884;9.126;2022-11-09T08:24:03;8.50;;;3.65;;
842;SDS011;407;48.884;9.126;2022-11-09T08:26:30;9.15;;;4.30;;
842;SDS011;407;48.884;9.126;2022-11-09T08:28:56;10.13;;;3.80;;
842;SDS011;407;48.884;9.126;2022-11-09T08:31:21;11.38;;;4.20;;
842;SDS011;407;48.884;9.126;2022-11-09T08:33:47;8.20;;;3.70;;
842;SDS011;407;48.884;9.126;2022-11-09T08:36:13;9.90;;;4.90;;
842;SDS011;407;48.884;9.126;2022-11-09T08:38:41;13.90;;;4.70;;
842;SDS011;407;48.884;9.126;2022-11-09T08:41:07;9.82;;;4.90;;
842;SDS011;407;48.884;9.126;2022-11-09T08:43:34;11.98;;;5.00;;
842;SDS011;407;48.884;9.126;2022-11-09T08:45:59;9.40;;;4.28;;
842;SDS011;407;48.884;9.126;2022-11-09T08:48:25;8.80;;;4.00;;
842;SDS011;407;48.884;9.126;2022-11-09T08:50:54;8.98;;;4.57;;
842;SDS011;407;48.884;9.126;2022-11-09T08:53:22;10.02;;;4.90;;
842;SDS011;407;48.884;9.126;2022-11-09T08:55:49;8.93;;;4.00;;
842;SDS011;407;48.884;9.126;2022-11-09T08:58:15;9.00;;;4.10;;
842;SDS011;407;48.884;9.126;2022-11-09T09:00:41;9.50;;;4.22;;
842;SDS011;407;48.884;9.126;2022-11-09T09:03:07;8.50;;;3.90;;
842;SDS011;407;48.884;9.126;2022-11-09T09:05:34;9.77;;;4.40;;
842;SDS011;407;48.884;9.126;2022-11-09T09:08:01;8.07;;;3.00;;
842;SDS011;407;48.884;9.126;2022-11-09T09:10:28;7.82;;;3.22;;
842;SDS011;407;48.884;9.126;2022-11-09T09:12:54;9.07;;;3.60;;
842;SDS011;407;48.884;9.126;2022-11-09T09:15:20;8.05;;;3.60;;
842;SDS011;407;48.884;9.126;2022-11-09T09:17:45;8.50;;;3.20;;
842;SDS011;407;48.884;9.126;2022-11-09T09:20:11;8.10;;;3.30;;
842;SDS011;407;48.884;9.126;2022-11-09T09:22:37;7.70;;;2.90;;
842;SDS011;407;48.884;9.126;2022-11-09T09:25:03;8.67;;;2.90;;
842;SDS011;407;48.884;9.126;2022-11-09T09:27:30;6.40;;;2.73;;
842;SDS011;407;48.884;9.126;2022-11-09T09:29:56;7.05;;;2.35;;
842;SDS011;407;48.884;9.126;2022-11-09T09:32:22;7.65;;;2.60;;
842;SDS011;407;48.884;9.126;2022-11-09T09:34:48;6.45;;;2.63;;
842;SDS011;407;48.884;9.126;2022-11-09T09:37:15;6.30;;;2.10;;
842;SDS011;407;48.884;9.126;2022-11-09T09:39:41;6.80;;;2.40;;
842;SDS011;407;48.884;9.126;2022-11-09T09:42:09;5.40;;;1.80;;
842;SDS011;407;48.884;9.126;2022-11-09T09:44:50;5.50;;;1.60;;
842;SDS011;407;48.884;9.126;2022-11-09T09:47:28;5.00;;;1.70;;
842;SDS011;407;48.884;9.126;2022-11-09T09:50:05;4.28;;;1.20;;
842;SDS011;407;48.884;9.126;2022-11-09T09:53:29;4.60;;;0.90;;
842;SDS011;407;48.884;9.126;2022-11-09T09:55:54;5.20;;;0.90;;
842;SDS011;407;48.884;9.126;2022-11-09T09:58:28;4.78;;;0.90;;
842;SDS011;407;48.884;9.126;2022-11-09T10:00:56;4.28;;;0.80;;
842;SDS011;407;48.884;9.126;2022-11-09T10:03:31;4.80;;;1.00;;
842;SDS011;407;48.884;9.126;2022-11-09T10:08:58;5.40;;;1.10;;
842;SDS011;407;48.884;9.126;2022-11-09T10:11:47;5.03;;;1.00;;
842;SDS011;407;48.884;9.126;2022-11-09T10:19:29;5.80;;;1.30;;
842;SDS011;407;48.884;9.126;2022-11-09T10:25:20;4.60;;;1.10;;
842;SDS011;407;48.884;9.126;2022-11-09T10:27:51;5.03;;;1.50;;
842;SDS011;407;48.884;9.126;2022-11-09T10:30:23;4.90;;;1.40;;
842;SDS011;407;48.884;9.126;2022-11-09T10:32:53;5.00;;;1.58;;
842;SDS011;407;48.884;9.126;2022-11-09T10:35:28;5.30;;;1.50;;
842;SDS011;407;48.884;9.126;2022-11-09T10:37:56;4.90;;;1.50;;
842;SDS011;407;48.884;9.126;2022-11-09T10:40:23;7.50;;;1.60;;
842;SDS011;407;48.884;9.126;2022-11-09T10:42:56;6.00;;;1.50;;
842;SDS011;407;48.884;9.126;2022-11-09T10:47:57;7.32;;;1.45;;
842;SDS011;407;48.884;9.126;2022-11-09T10:50:28;6.03;;;1.60;;
842;SDS011;407;48.884;9.126;2022-11-09T10:53:09;5.72;;;2.00;;
842;SDS011;407;48.884;9.126;2022-11-09T10:55:38;4.90;;;1.40;;
842;SDS011;407;48.884;9.126;2022-11-09T10:58:19;4.80;;;1.50;;
842;SDS011;407;48.884;9.126;2022-11-09T11:03:38;5.00;;;1.60;;
842;SDS011;407;48.884;9.126;2022-11-09T11:08:46;5.93;;;1.60;;
842;SDS011;407;48.884;9.126;2022-11-09T11:11:15;6.53;;;1.80;;
842;SDS011;407;48.884;9.126;2022-11-09T11:13:48;6.45;;;1.90;;
842;SDS011;407;48.884;9.126;2022-11-09T11:18:52;5.55;;;1.75;;
842;SDS011;407;48.884;9.126;2022-11-09T11:21:18;5.72;;;1.70;;
842;SDS011;407;48.884;9.126;2022-11-09T11:24:02;6.45;;;2.00;;
842;SDS011;407;48.884;9.126;2022-11-09T11:26:54;5.53;;;1.80;;
842;SDS011;407;48.884;9.126;2022-11-09T11:29:30;8.45;;;2.10;;
842;SDS011;407;48.884;9.126;2022-11-09T11:32:13;5.47;;;1.58;;
842;SDS011;407;48.884;9.126;2022-11-09T11:34:40;5.70;;;1.80;;
842;SDS011;407;48.884;9.126;2022-11-09T11:37:20;6.30;;;1.70;;
842;SDS011;407;48.884;9.126;2022-11-09T11:40:04;5.88;;;2.00;;
842;SDS011;407;48.884;9.126;2022-11-09T11:56:17;7.10;;;2.00;;
842;SDS011;407;48.884;9.126;2022-11-09T12:06:49;5.30;;;1.80;;
842;SDS011;407;48.884;9.126;2022-11-09T12:23:23;6.10;;;2.00;;
842;SDS011;407;48.884;9.126;2022-11-09T12:26:13;5.72;;;1.92;;
842;SDS011;407;48.884;9.126;2022-11-09T12:37:03;6.72;;;2.08;;
842;SDS011;407;48.884;9.126;2022-11-09T12:39:21;5.63;;;2.00;;
842;SDS011;407;48.884;9.126;2022-11-09T12:41:50;5.85;;;2.80;;
842;SDS011;407;48.884;9.126;2022-11-09T12:44:27;6.65;;;2.05;;
842;SDS011;407;48.884;9.126;2022-11-09T12:47:02;5.65;;;2.00;;
842;SDS011;407;48.884;9.126;2022-11-09T12:49:35;10.10;;;2.25;;
842;SDS011;407;48.884;9.126;2022-11-09T12:52:07;6.20;;;2.00;;
842;SDS011;407;48.884;9.126;2022-11-09T12:54:40;6.90;;;2.35;;
842;SDS011;407;48.884;9.126;2022-11-09T12:57:13;6.00;;;2.35;;
842;SDS011;407;48.884;9.126;2022-11-09T13:02:30;5.50;;;2.10;;
842;SDS011;407;48.884;9.126;2022-11-09T13:04:59;8.00;;;2.40;;
842;SDS011;407;48.884;9.126;2022-11-09T13:13:00;7.03;;;2.50;;
842;SDS011;407;48.884;9.126;2022-11-09T13:21:45;6.47;;;2.77;;
842;SDS011;407;48.884;9.126;2022-11-09T13:23:46;7.80;;;2.80;;
842;SDS011;407;48.884;9.126;2022-11-09T13:34:38;8.85;;;2.92;;
842;SDS011;407;48.884;9.126;2022-11-09T13:40:46;8.68;;;2.88;;
842;SDS011;407;48.884;9.126;2022-11-09T13:48:23;7.55;;;3.00;;
842;SDS011;407;48.884;9.126;2022-11-09T13:50:57;7.72;;;3.10;;
842;SDS011;407;48.884;9.126;2022-11-09T13:56:22;8.95;;;3.20;;
842;SDS011;407;48.884;9.126;2022-11-09T14:04:19;7.38;;;3.30;;
842;SDS011;407;48.884;9.126;2022-11-09T14:07:17;10.00;;;3.45;;
842;SDS011;407;48.884;9.126;2022-11-09T14:15:33;8.85;;;3.40;;
842;SDS011;407;48.884;9.126;2022-11-09T14:21:16;6.70;;;2.90;;
842;SDS011;407;48.884;9.126;2022-11-09T14:24:30;7.78;;;3.30;;
842;SDS011;407;48.884;9.126;2022-11-09T14:27:01;7.50;;;2.90;;
842;SDS011;407;48.884;9.126;2022-11-09T14:29:33;6.23;;;2.90;;
842;SDS011;407;48.884;9.126;2022-11-09T14:37:48;8.55;;;3.30;;
842;SDS011;407;48.884;9.126;2022-11-09T14:40:16;8.07;;;3.20;;
842;SDS011;407;48.884;9.126;2022-11-09T14:42:50;7.65;;;3.00;;
842;SDS011;407;48.884;9.126;2022-11-09T14:45:18;8.27;;;3.30;;
842;SDS011;407;48.884;9.126;2022-11-09T14:47:45;7.30;;;3.65;;
842;SDS011;407;48.884;9.126;2022-11-09T14:50:14;10.07;;;3.60;;
842;SDS011;407;48.884;9.126;2022-11-09T14:52:46;8.52;;;4.72;;
842;SDS011;407;48.884;9.126;2022-11-09T14:55:13;9.80;;;4.45;;
842;SDS011;407;48.884;9.126;2022-11-09T14:57:41;10.43;;;4.30;;
842;SDS011;407;48.884;9.126;2022-11-09T15:00:25;12.77;;;5.07;;
842;SDS011;407;48.884;9.126;2022-11-09T15:02:57;9.30;;;4.20;;
842;SDS011;407;48.884;9.126;2022-11-09T15:05:36;8.85;;;4.03;;
842;SDS011;407;48.884;9.126;2022-11-09T15:08:04;10.35;;;4.20;;
842;SDS011;407;48.884;9.126;2022-11-09T15:10:40;8.50;;;4.05;;
842;SDS011;407;48.884;9.126;2022-11-09T15:13:13;12.00;;;4.88;;
842;SDS011;407;48.884;9.126;2022-11-09T15:15:39;9.70;;;4.20;;
842;SDS011;407;48.884;9.126;2022-11-09T15:18:04;8.98;;;3.72;;
842;SDS011;407;48.884;9.126;2022-11-09T15:20:39;10.55;;;4.43;;
842;SDS011;407;48.884;9.126;2022-11-09T15:23:05;13.00;;;4.30;;
842;SDS011;407;48.884;9.126;2022-11-09T15:30:37;10.52;;;3.90;;
842;SDS011;407;48.884;9.126;2022-11-09T15:38:32;9.77;;;3.55;;
842;SDS011;407;48.884;9.126;2022-11-09T15:41:02;10.88;;;4.60;;
842;SDS011;407;48.884;9.126;2022-11-09T15:43:42;11.35;;;5.25;;
842;SDS011;407;48.884;9.126;2022-11-09T15:46:15;10.37;;;5.30;;
842;SDS011;407;48.884;9.126;2022-11-09T15:48:43;15.40;;;5.05;;
842;SDS011;407;48.884;9.126;2022-11-09T15:51:09;8.43;;;4.00;;
842;SDS011;407;48.884;9.126;2022-11-09T15:53:36;8.93;;;5.10;;
842;SDS011;407;48.884;9.126;2022-11-09T15:56:02;8.73;;;3.88;;
842;SDS011;407;48.884;9.126;2022-11-09T15:58:28;13.23;;;5.35;;
842;SDS011;407;48.884;9.126;2022-11-09T16:00:54;11.23;;;4.67;;
842;SDS011;407;48.884;9.126;2022-11-09T16:03:19;10.25;;;4.00;;
842;SDS011;407;48.884;9.126;2022-11-09T16:05:45;7.10;;;2.92;;
842;SDS011;407;48.884;9.126;2022-11-09T16:08:11;8.30;;;3.27;;
842;SDS011;407;48.884;9.126;2022-11-09T16:10:37;9.45;;;3.00;;
842;SDS011;407;48.884;9.126;2022-11-09T16:13:04;7.50;;;2.80;;
842;SDS011;407;48.884;9.126;2022-11-09T16:15:32;7.57;;;2.85;;
842;SDS011;407;48.884;9.126;2022-11-09T16:17:58;7.55;;;2.70;;
842;SDS011;407;48.884;9.126;2022-11-09T16:20:24;7.40;;;2.70;;
842;SDS011;407;48.884;9.126;2022-11-09T16:22:50;8.50;;;3.30;;
842;SDS011;407;48.884;9.126;2022-11-09T16:25:16;7.25;;;3.05;;
842;SDS011;407;48.884;9.126;2022-11-09T16:27:42;9.20;;;3.80;;
842;SDS011;407;48.884;9.126;2022-11-09T16:30:09;11.48;;;4.40;;
842;SDS011;407;48.884;9.126;2022-11-09T16:32:35;9.68;;;4.40;;
842;SDS011;407;48.884;9.126;2022-11-09T16:35:01;11.05;;;4.57;;
842;SDS011;407;48.884;9.126;2022-11-09T16:37:28;9.05;;;4.45;;
842;SDS011;407;48.884;9.126;2022-11-09T16:39:58;11.40;;;5.10;;
842;SDS011;407;48.884;9.126;2022-11-09T16:42:25;10.13;;;4.60;;
842;SDS011;407;48.884;9.126;2022-11-09T16:44:51;12.20;;;5.00;;
842;SDS011;407;48.884;9.126;2022-11-09T16:47:21;11.00;;;4.90;;
842;SDS011;407;48.884;9.126;2022-11-09T16:49:46;10.57;;;4.50;;
842;SDS011;407;48.884;9.126;2022-11-09T16:52:12;11.30;;;4.80;;
842;SDS011;407;48.884;9.126;2022-11-09T16:54:38;10.80;;;4.57;;
842;SDS011;407;48.884;9.126;2022-11-09T16:57:03;11.00;;;3.95;;
842;SDS011;407;48.884;9.126;2022-11-09T16:59:29;8.40;;;3.60;;
842;SDS011;407;48.884;9.126;2022-11-09T17:01:55;9.13;;;3.40;;
842;SDS011;407;48.884;9.126;2022-11-09T17:04:22;11.90;;;3.95;;
842;SDS011;407;48.884;9.126;2022-11-09T17:06:48;7.57;;;3.40;;
842;SDS011;407;48.884;9.126;2022-11-09T17:09:15;8.63;;;2.90;;
842;SDS011;407;48.884;9.126;2022-11-09T17:11:41;8.63;;;3.20;;
842;SDS011;407;48.884;9.126;2022-11-09T17:14:07;9.30;;;3.50;;
842;SDS011;407;48.884;9.126;2022-11-09T17:16:33;7.32;;;3.70;;
842;SDS011;407;48.884;9.126;2022-11-09T17:18:59;11.80;;;3.80;;
842;SDS011;407;48.884;9.126;2022-11-09T17:21:26;8.57;;;3.20;;
842;SDS011;407;48.884;9.126;2022-11-09T17:23:53;10.23;;;4.00;;
842;SDS011;407;48.884;9.126;2022-11-09T17:26:20;10.48;;;4.40;;
842;SDS011;407;48.884;9.126;2022-11-09T17:28:47;13.75;;;4.22;;
842;SDS011;407;48.884;9.126;2022-11-09T17:31:14;7.45;;;3.35;;
842;SDS011;407;48.884;9.126;2022-11-09T17:33:41;8.35;;;3.88;;
842;SDS011;407;48.884;9.126;2022-11-09T17:36:08;9.02;;;3.67;;
842;SDS011;407;48.884;9.126;2022-11-09T17:38:38;9.30;;;3.80;;
842;SDS011;407;48.884;9.126;2022-11-09T17:41:14;9.43;;;3.60;;
842;SDS011;407;48.884;9.126;2022-11-09T17:43:42;8.67;;;3.90;;
842;SDS011;407;48.884;9.126;2022-11-09T17:46:27;9.07;;;3.63;;
842;SDS011;407;48.884;9.126;2022-11-09T17:48:52;9.50;;;3.20;;
842;SDS011;407;48.884;9.126;2022-11-09T17:51:19;9.80;;;4.10;;
842;SDS011;407;48.884;9.126;2022-11-09T17:53:45;7.88;;;3.10;;
842;SDS011;407;48.884;9.126;2022-11-09T17:56:11;8.43;;;3.38;;
842;SDS011;407;48.884;9.126;2022-11-09T17:58:38;11.00;;;3.30;;
842;SDS011;407;48.884;9.126;2022-11-09T18:01:06;7.05;;;3.00;;